Hanamaulu, Hawaii
Current Conditions -  °F | °C
As of 3:53 AM on Sunday 21 Dec 2014 (Local Time) from PHLI Reporting Station
Clear Clear  
Wind Chill: 67°   Ceiling: Unl
Heat Index: 67°   Visibility: 10mi
Dew Point: 62°   Wind: 6mph
Humidity: 84%   Direction: 260°W
Pressure: 30.04"   Gusts: NA
Location:  21.99°N, 159.35°W
Report Text: PHLI 211353Z 26005KT 10SM CLR 19/17 A3004 RMK AO2 SLP170 T01940167
Loading
Personal Weather Stations






























Interactive Weather Map New forecast layout! Learn more

10-Day Weather Forecast

Advertisements
Track Severe Weather on mobile